sensor_id;sensor_type;location;lat;lon;timestamp;P1;durP1;ratioP1;P2;durP2;ratioP2
58669;SDS011;44439;47.924;10.198;2022-11-15T00:01:43;2.65;;;1.95;;
58669;SDS011;44439;47.924;10.198;2022-11-15T00:04:29;1.92;;;1.27;;
58669;SDS011;44439;47.924;10.198;2022-11-15T00:07:14;2.75;;;1.60;;
58669;SDS011;44439;47.924;10.198;2022-11-15T00:10:00;2.95;;;1.60;;
58669;SDS011;44439;47.924;10.198;2022-11-15T00:12:46;1.85;;;1.30;;
58669;SDS011;44439;47.924;10.198;2022-11-15T00:15:33;6.95;;;1.98;;
58669;SDS011;44439;47.924;10.198;2022-11-15T00:18:20;3.10;;;1.65;;
58669;SDS011;44439;47.924;10.198;2022-11-15T00:21:07;2.08;;;1.42;;
58669;SDS011;44439;47.924;10.198;2022-11-15T00:23:54;2.35;;;1.63;;
58669;SDS011;44439;47.924;10.198;2022-11-15T00:26:40;3.97;;;1.80;;
58669;SDS011;44439;47.924;10.198;2022-11-15T00:29:26;1.85;;;1.63;;
58669;SDS011;44439;47.924;10.198;2022-11-15T00:32:12;2.63;;;1.80;;
58669;SDS011;44439;47.924;10.198;2022-11-15T00:34:58;2.67;;;1.63;;
58669;SDS011;44439;47.924;10.198;2022-11-15T00:37:43;1.52;;;1.33;;
58669;SDS011;44439;47.924;10.198;2022-11-15T00:40:29;2.22;;;1.20;;
58669;SDS011;44439;47.924;10.198;2022-11-15T00:43:15;1.65;;;1.20;;
58669;SDS011;44439;47.924;10.198;2022-11-15T00:46:01;1.65;;;1.20;;
58669;SDS011;44439;47.924;10.198;2022-11-15T00:48:47;1.88;;;1.27;;
58669;SDS011;44439;47.924;10.198;2022-11-15T00:51:33;1.95;;;1.05;;
58669;SDS011;44439;47.924;10.198;2022-11-15T00:54:18;2.28;;;1.20;;
58669;SDS011;44439;47.924;10.198;2022-11-15T00:57:04;2.22;;;1.60;;
58669;SDS011;44439;47.924;10.198;2022-11-15T00:59:50;3.00;;;1.52;;
58669;SDS011;44439;47.924;10.198;2022-11-15T01:02:35;4.60;;;1.83;;
58669;SDS011;44439;47.924;10.198;2022-11-15T01:05:21;3.17;;;1.80;;
58669;SDS011;44439;47.924;10.198;2022-11-15T01:08:11;1.92;;;1.50;;
58669;SDS011;44439;47.924;10.198;2022-11-15T01:11:06;1.80;;;1.52;;
58669;SDS011;44439;47.924;10.198;2022-11-15T01:13:56;2.47;;;1.55;;
58669;SDS011;44439;47.924;10.198;2022-11-15T01:16:42;2.53;;;1.40;;
58669;SDS011;44439;47.924;10.198;2022-11-15T01:19:27;2.03;;;1.45;;
58669;SDS011;44439;47.924;10.198;2022-11-15T01:22:13;3.13;;;1.67;;
58669;SDS011;44439;47.924;10.198;2022-11-15T01:24:59;2.13;;;1.65;;
58669;SDS011;44439;47.924;10.198;2022-11-15T01:27:44;2.67;;;1.33;;
58669;SDS011;44439;47.924;10.198;2022-11-15T01:30:30;3.35;;;1.25;;
58669;SDS011;44439;47.924;10.198;2022-11-15T01:33:16;2.10;;;1.30;;
58669;SDS011;44439;47.924;10.198;2022-11-15T01:36:08;1.98;;;1.23;;
58669;SDS011;44439;47.924;10.198;2022-11-15T01:38:57;2.10;;;1.10;;
58669;SDS011;44439;47.924;10.198;2022-11-15T01:41:43;1.23;;;1.13;;
58669;SDS011;44439;47.924;10.198;2022-11-15T01:47:38;2.40;;;1.42;;
58669;SDS011;44439;47.924;10.198;2022-11-15T01:50:27;1.90;;;1.60;;
58669;SDS011;44439;47.924;10.198;2022-11-15T01:53:15;2.42;;;1.60;;
58669;SDS011;44439;47.924;10.198;2022-11-15T01:56:02;1.85;;;1.20;;
58669;SDS011;44439;47.924;10.198;2022-11-15T01:58:49;1.88;;;1.20;;
58669;SDS011;44439;47.924;10.198;2022-11-15T02:01:36;1.88;;;1.33;;
58669;SDS011;44439;47.924;10.198;2022-11-15T02:04:24;3.00;;;1.60;;
58669;SDS011;44439;47.924;10.198;2022-11-15T02:07:12;1.75;;;1.20;;
58669;SDS011;44439;47.924;10.198;2022-11-15T02:10:04;2.67;;;1.20;;
58669;SDS011;44439;47.924;10.198;2022-11-15T02:13:11;2.30;;;1.10;;
58669;SDS011;44439;47.924;10.198;2022-11-15T02:16:07;1.52;;;1.20;;
58669;SDS011;44439;47.924;10.198;2022-11-15T02:19:10;1.95;;;1.20;;
58669;SDS011;44439;47.924;10.198;2022-11-15T02:31:10;3.85;;;1.55;;
58669;SDS011;44439;47.924;10.198;2022-11-15T02:34:04;2.28;;;1.25;;
58669;SDS011;44439;47.924;10.198;2022-11-15T02:43:14;1.50;;;1.05;;
58669;SDS011;44439;47.924;10.198;2022-11-15T02:46:36;3.00;;;0.90;;
58669;SDS011;44439;47.924;10.198;2022-11-15T02:49:47;2.80;;;1.50;;
58669;SDS011;44439;47.924;10.198;2022-11-15T02:52:35;3.05;;;1.48;;
58669;SDS011;44439;47.924;10.198;2022-11-15T02:55:33;5.95;;;1.50;;
58669;SDS011;44439;47.924;10.198;2022-11-15T02:58:38;3.75;;;1.60;;
58669;SDS011;44439;47.924;10.198;2022-11-15T03:01:46;2.00;;;1.00;;
58669;SDS011;44439;47.924;10.198;2022-11-15T03:11:15;1.40;;;1.20;;
58669;SDS011;44439;47.924;10.198;2022-11-15T03:14:12;1.40;;;1.23;;
58669;SDS011;44439;47.924;10.198;2022-11-15T03:17:02;2.92;;;1.10;;
58669;SDS011;44439;47.924;10.198;2022-11-15T03:19:58;2.17;;;1.30;;
58669;SDS011;44439;47.924;10.198;2022-11-15T03:22:45;4.57;;;1.20;;
58669;SDS011;44439;47.924;10.198;2022-11-15T03:25:32;2.17;;;1.60;;
58669;SDS011;44439;47.924;10.198;2022-11-15T03:28:23;2.60;;;1.40;;
58669;SDS011;44439;47.924;10.198;2022-11-15T03:31:12;2.30;;;1.23;;
58669;SDS011;44439;47.924;10.198;2022-11-15T03:37:04;2.58;;;1.10;;
58669;SDS011;44439;47.924;10.198;2022-11-15T03:39:49;4.13;;;1.30;;
58669;SDS011;44439;47.924;10.198;2022-11-15T03:42:42;3.65;;;1.20;;
58669;SDS011;44439;47.924;10.198;2022-11-15T03:45:32;2.65;;;1.33;;
58669;SDS011;44439;47.924;10.198;2022-11-15T03:48:22;2.65;;;1.77;;
58669;SDS011;44439;47.924;10.198;2022-11-15T03:51:10;7.18;;;2.55;;
58669;SDS011;44439;47.924;10.198;2022-11-15T03:53:56;5.78;;;1.88;;
58669;SDS011;44439;47.924;10.198;2022-11-15T03:56:41;3.55;;;1.70;;
58669;SDS011;44439;47.924;10.198;2022-11-15T03:59:27;3.03;;;1.42;;
58669;SDS011;44439;47.924;10.198;2022-11-15T04:02:13;2.47;;;1.50;;
58669;SDS011;44439;47.924;10.198;2022-11-15T04:04:59;2.80;;;1.63;;
58669;SDS011;44439;47.924;10.198;2022-11-15T04:07:45;2.45;;;1.30;;
58669;SDS011;44439;47.924;10.198;2022-11-15T04:10:30;2.63;;;1.45;;
58669;SDS011;44439;47.924;10.198;2022-11-15T04:13:16;3.55;;;1.90;;
58669;SDS011;44439;47.924;10.198;2022-11-15T04:16:02;3.17;;;2.08;;
58669;SDS011;44439;47.924;10.198;2022-11-15T04:18:47;3.85;;;1.80;;
58669;SDS011;44439;47.924;10.198;2022-11-15T04:21:53;3.92;;;1.75;;
58669;SDS011;44439;47.924;10.198;2022-11-15T04:24:57;3.08;;;1.15;;
58669;SDS011;44439;47.924;10.198;2022-11-15T04:27:43;2.40;;;1.27;;
58669;SDS011;44439;47.924;10.198;2022-11-15T04:30:29;1.83;;;1.20;;
58669;SDS011;44439;47.924;10.198;2022-11-15T04:33:15;3.28;;;1.13;;
58669;SDS011;44439;47.924;10.198;2022-11-15T04:36:00;1.50;;;1.40;;
58669;SDS011;44439;47.924;10.198;2022-11-15T04:39:04;2.55;;;1.83;;
58669;SDS011;44439;47.924;10.198;2022-11-15T04:41:50;2.88;;;1.98;;
58669;SDS011;44439;47.924;10.198;2022-11-15T04:44:36;3.17;;;1.70;;
58669;SDS011;44439;47.924;10.198;2022-11-15T04:47:21;3.50;;;2.10;;
58669;SDS011;44439;47.924;10.198;2022-11-15T04:50:07;4.63;;;2.13;;
58669;SDS011;44439;47.924;10.198;2022-11-15T04:52:53;2.42;;;1.88;;
58669;SDS011;44439;47.924;10.198;2022-11-15T04:55:39;5.28;;;1.77;;
58669;SDS011;44439;47.924;10.198;2022-11-15T04:58:25;3.63;;;1.70;;
58669;SDS011;44439;47.924;10.198;2022-11-15T05:01:12;3.63;;;1.83;;
58669;SDS011;44439;47.924;10.198;2022-11-15T05:03:59;3.03;;;2.35;;
58669;SDS011;44439;47.924;10.198;2022-11-15T05:07:04;3.20;;;2.10;;
58669;SDS011;44439;47.924;10.198;2022-11-15T05:09:49;4.78;;;2.75;;
58669;SDS011;44439;47.924;10.198;2022-11-15T05:12:35;4.93;;;3.00;;
58669;SDS011;44439;47.924;10.198;2022-11-15T05:15:21;6.20;;;3.03;;
58669;SDS011;44439;47.924;10.198;2022-11-15T05:18:06;5.80;;;3.78;;
58669;SDS011;44439;47.924;10.198;2022-11-15T05:20:52;5.82;;;3.83;;
58669;SDS011;44439;47.924;10.198;2022-11-15T05:23:38;4.57;;;2.95;;
58669;SDS011;44439;47.924;10.198;2022-11-15T05:26:24;3.97;;;3.58;;
58669;SDS011;44439;47.924;10.198;2022-11-15T05:29:10;6.25;;;4.50;;
58669;SDS011;44439;47.924;10.198;2022-11-15T05:31:56;7.32;;;5.00;;
58669;SDS011;44439;47.924;10.198;2022-11-15T05:34:42;4.28;;;3.38;;
58669;SDS011;44439;47.924;10.198;2022-11-15T05:37:28;4.22;;;2.90;;
58669;SDS011;44439;47.924;10.198;2022-11-15T05:40:14;3.33;;;2.40;;
58669;SDS011;44439;47.924;10.198;2022-11-15T05:43:00;4.00;;;2.60;;
58669;SDS011;44439;47.924;10.198;2022-11-15T05:45:46;3.65;;;2.75;;
58669;SDS011;44439;47.924;10.198;2022-11-15T05:48:32;3.28;;;2.42;;
58669;SDS011;44439;47.924;10.198;2022-11-15T05:51:19;2.30;;;2.03;;
58669;SDS011;44439;47.924;10.198;2022-11-15T05:54:06;3.17;;;2.20;;
58669;SDS011;44439;47.924;10.198;2022-11-15T05:56:52;3.65;;;1.90;;
58669;SDS011;44439;47.924;10.198;2022-11-15T05:59:38;2.75;;;2.20;;
58669;SDS011;44439;47.924;10.198;2022-11-15T06:02:25;4.85;;;2.65;;
58669;SDS011;44439;47.924;10.198;2022-11-15T06:05:11;3.78;;;2.40;;
58669;SDS011;44439;47.924;10.198;2022-11-15T06:07:57;3.63;;;1.95;;
58669;SDS011;44439;47.924;10.198;2022-11-15T06:10:44;3.80;;;1.70;;
58669;SDS011;44439;47.924;10.198;2022-11-15T06:13:29;2.50;;;1.67;;
58669;SDS011;44439;47.924;10.198;2022-11-15T06:16:15;3.90;;;1.42;;
58669;SDS011;44439;47.924;10.198;2022-11-15T06:19:01;3.83;;;1.65;;
58669;SDS011;44439;47.924;10.198;2022-11-15T06:21:47;3.63;;;2.08;;
58669;SDS011;44439;47.924;10.198;2022-11-15T06:24:32;2.85;;;1.80;;
58669;SDS011;44439;47.924;10.198;2022-11-15T06:27:18;3.50;;;2.15;;
58669;SDS011;44439;47.924;10.198;2022-11-15T06:30:04;5.85;;;2.75;;
58669;SDS011;44439;47.924;10.198;2022-11-15T06:32:50;4.13;;;2.70;;
58669;SDS011;44439;47.924;10.198;2022-11-15T06:35:36;5.40;;;2.75;;
58669;SDS011;44439;47.924;10.198;2022-11-15T06:38:21;4.15;;;2.40;;
58669;SDS011;44439;47.924;10.198;2022-11-15T06:41:08;3.05;;;1.95;;
58669;SDS011;44439;47.924;10.198;2022-11-15T06:43:55;5.25;;;2.97;;
58669;SDS011;44439;47.924;10.198;2022-11-15T06:46:41;5.65;;;4.20;;
58669;SDS011;44439;47.924;10.198;2022-11-15T06:49:27;8.95;;;4.90;;
58669;SDS011;44439;47.924;10.198;2022-11-15T06:52:12;9.77;;;5.50;;
58669;SDS011;44439;47.924;10.198;2022-11-15T06:54:58;9.68;;;7.18;;
58669;SDS011;44439;47.924;10.198;2022-11-15T06:57:50;8.38;;;7.00;;
58669;SDS011;44439;47.924;10.198;2022-11-15T07:00:37;7.63;;;4.78;;
58669;SDS011;44439;47.924;10.198;2022-11-15T07:03:22;5.50;;;3.90;;
58669;SDS011;44439;47.924;10.198;2022-11-15T07:06:08;5.63;;;3.90;;
58669;SDS011;44439;47.924;10.198;2022-11-15T07:08:54;5.85;;;3.00;;
58669;SDS011;44439;47.924;10.198;2022-11-15T07:11:40;5.20;;;3.58;;
58669;SDS011;44439;47.924;10.198;2022-11-15T07:14:26;5.25;;;2.85;;
58669;SDS011;44439;47.924;10.198;2022-11-15T07:17:11;6.30;;;3.08;;
58669;SDS011;44439;47.924;10.198;2022-11-15T07:19:57;9.05;;;2.92;;
58669;SDS011;44439;47.924;10.198;2022-11-15T07:22:43;4.05;;;2.55;;
58669;SDS011;44439;47.924;10.198;2022-11-15T07:25:30;5.20;;;3.10;;
58669;SDS011;44439;47.924;10.198;2022-11-15T07:28:16;4.55;;;2.95;;
58669;SDS011;44439;47.924;10.198;2022-11-15T07:31:05;5.45;;;3.55;;
58669;SDS011;44439;47.924;10.198;2022-11-15T07:33:52;7.53;;;4.95;;
58669;SDS011;44439;47.924;10.198;2022-11-15T07:36:37;7.57;;;5.40;;
58669;SDS011;44439;47.924;10.198;2022-11-15T07:39:23;12.63;;;8.63;;
58669;SDS011;44439;47.924;10.198;2022-11-15T07:42:09;15.52;;;9.00;;
58669;SDS011;44439;47.924;10.198;2022-11-15T07:45:13;13.57;;;8.43;;
58669;SDS011;44439;47.924;10.198;2022-11-15T07:47:58;16.33;;;7.00;;
58669;SDS011;44439;47.924;10.198;2022-11-15T07:50:44;7.03;;;5.43;;
58669;SDS011;44439;47.924;10.198;2022-11-15T07:53:30;6.53;;;4.60;;
58669;SDS011;44439;47.924;10.198;2022-11-15T07:56:16;8.63;;;4.10;;
58669;SDS011;44439;47.924;10.198;2022-11-15T07:59:02;8.13;;;3.78;;
58669;SDS011;44439;47.924;10.198;2022-11-15T08:01:47;6.90;;;4.57;;
58669;SDS011;44439;47.924;10.198;2022-11-15T08:04:33;7.63;;;3.63;;
58669;SDS011;44439;47.924;10.198;2022-11-15T08:07:19;7.18;;;3.45;;
58669;SDS011;44439;47.924;10.198;2022-11-15T08:10:04;6.35;;;3.30;;
58669;SDS011;44439;47.924;10.198;2022-11-15T08:13:02;5.20;;;3.38;;
58669;SDS011;44439;47.924;10.198;2022-11-15T08:15:49;8.20;;;3.47;;
58669;SDS011;44439;47.924;10.198;2022-11-15T08:18:35;6.70;;;3.30;;
58669;SDS011;44439;47.924;10.198;2022-11-15T08:21:21;7.57;;;3.20;;
58669;SDS011;44439;47.924;10.198;2022-11-15T08:24:11;9.80;;;3.13;;
58669;SDS011;44439;47.924;10.198;2022-11-15T08:26:56;7.13;;;2.97;;
58669;SDS011;44439;47.924;10.198;2022-11-15T08:29:45;12.05;;;2.63;;
58669;SDS011;44439;47.924;10.198;2022-11-15T08:32:32;5.43;;;2.83;;
58669;SDS011;44439;47.924;10.198;2022-11-15T08:35:18;6.70;;;3.30;;
58669;SDS011;44439;47.924;10.198;2022-11-15T08:38:05;5.95;;;3.08;;
58669;SDS011;44439;47.924;10.198;2022-11-15T08:40:58;4.25;;;2.30;;
58669;SDS011;44439;47.924;10.198;2022-11-15T08:43:48;7.82;;;2.08;;
58669;SDS011;44439;47.924;10.198;2022-11-15T08:46:34;4.88;;;2.47;;
58669;SDS011;44439;47.924;10.198;2022-11-15T08:49:20;5.28;;;2.30;;
58669;SDS011;44439;47.924;10.198;2022-11-15T08:52:05;4.93;;;2.70;;
58669;SDS011;44439;47.924;10.198;2022-11-15T08:54:51;4.35;;;2.70;;
58669;SDS011;44439;47.924;10.198;2022-11-15T08:57:37;7.57;;;2.40;;
58669;SDS011;44439;47.924;10.198;2022-11-15T09:00:22;5.55;;;2.83;;
58669;SDS011;44439;47.924;10.198;2022-11-15T09:03:08;3.63;;;2.42;;
58669;SDS011;44439;47.924;10.198;2022-11-15T09:05:55;5.07;;;2.50;;
58669;SDS011;44439;47.924;10.198;2022-11-15T09:08:41;4.70;;;3.40;;
58669;SDS011;44439;47.924;10.198;2022-11-15T09:11:27;7.18;;;4.40;;
58669;SDS011;44439;47.924;10.198;2022-11-15T09:14:13;6.88;;;2.85;;
58669;SDS011;44439;47.924;10.198;2022-11-15T09:16:59;7.00;;;4.53;;
58669;SDS011;44439;47.924;10.198;2022-11-15T09:19:45;4.47;;;2.28;;
58669;SDS011;44439;47.924;10.198;2022-11-15T09:22:31;6.97;;;2.78;;
58669;SDS011;44439;47.924;10.198;2022-11-15T09:25:17;5.85;;;2.70;;
58669;SDS011;44439;47.924;10.198;2022-11-15T09:28:05;4.60;;;2.70;;
58669;SDS011;44439;47.924;10.198;2022-11-15T09:30:55;5.50;;;2.47;;
58669;SDS011;44439;47.924;10.198;2022-11-15T09:33:44;12.80;;;2.40;;
58669;SDS011;44439;47.924;10.198;2022-11-15T09:36:31;5.70;;;2.47;;
58669;SDS011;44439;47.924;10.198;2022-11-15T09:39:16;6.53;;;2.78;;
58669;SDS011;44439;47.924;10.198;2022-11-15T09:42:06;9.18;;;2.67;;
58669;SDS011;44439;47.924;10.198;2022-11-15T09:45:15;9.85;;;2.40;;
58669;SDS011;44439;47.924;10.198;2022-11-15T09:51:08;4.78;;;2.50;;
58669;SDS011;44439;47.924;10.198;2022-11-15T09:54:04;10.70;;;2.83;;
58669;SDS011;44439;47.924;10.198;2022-11-15T09:57:18;7.60;;;2.80;;
58669;SDS011;44439;47.924;10.198;2022-11-15T10:03:29;7.60;;;2.85;;
58669;SDS011;44439;47.924;10.198;2022-11-15T10:06:22;4.18;;;2.60;;
58669;SDS011;44439;47.924;10.198;2022-11-15T10:12:02;6.43;;;3.05;;
58669;SDS011;44439;47.924;10.198;2022-11-15T10:14:48;3.08;;;1.70;;
58669;SDS011;44439;47.924;10.198;2022-11-15T10:17:40;1.95;;;1.38;;
58669;SDS011;44439;47.924;10.198;2022-11-15T10:20:42;4.50;;;1.60;;
58669;SDS011;44439;47.924;10.198;2022-11-15T10:23:32;3.72;;;1.55;;
58669;SDS011;44439;47.924;10.198;2022-11-15T10:26:17;2.65;;;1.65;;
58669;SDS011;44439;47.924;10.198;2022-11-15T10:29:03;11.13;;;2.40;;
58669;SDS011;44439;47.924;10.198;2022-11-15T10:31:49;4.38;;;2.10;;
58669;SDS011;44439;47.924;10.198;2022-11-15T10:34:35;4.82;;;2.22;;
58669;SDS011;44439;47.924;10.198;2022-11-15T10:37:28;3.17;;;2.10;;
58669;SDS011;44439;47.924;10.198;2022-11-15T10:40:16;3.25;;;2.50;;
58669;SDS011;44439;47.924;10.198;2022-11-15T10:45:56;2.90;;;2.25;;
58669;SDS011;44439;47.924;10.198;2022-11-15T10:49:25;2.42;;;2.10;;
58669;SDS011;44439;47.924;10.198;2022-11-15T10:52:16;3.17;;;2.25;;
58669;SDS011;44439;47.924;10.198;2022-11-15T11:01:10;3.08;;;2.38;;
58669;SDS011;44439;47.924;10.198;2022-11-15T11:03:58;3.60;;;2.50;;
58669;SDS011;44439;47.924;10.198;2022-11-15T11:06:53;5.80;;;2.30;;
58669;SDS011;44439;47.924;10.198;2022-11-15T11:09:43;3.40;;;2.35;;
58669;SDS011;44439;47.924;10.198;2022-11-15T11:12:30;2.28;;;1.85;;
58669;SDS011;44439;47.924;10.198;2022-11-15T11:15:17;5.05;;;2.10;;
58669;SDS011;44439;47.924;10.198;2022-11-15T11:18:06;2.72;;;2.50;;
58669;SDS011;44439;47.924;10.198;2022-11-15T11:20:57;2.42;;;2.22;;
58669;SDS011;44439;47.924;10.198;2022-11-15T11:23:51;8.18;;;2.67;;
58669;SDS011;44439;47.924;10.198;2022-11-15T11:26:42;2.78;;;2.20;;
58669;SDS011;44439;47.924;10.198;2022-11-15T11:30:03;4.72;;;2.70;;
58669;SDS011;44439;47.924;10.198;2022-11-15T11:33:37;3.10;;;2.40;;
58669;SDS011;44439;47.924;10.198;2022-11-15T11:36:14;6.47;;;3.08;;
58669;SDS011;44439;47.924;10.198;2022-11-15T11:39:19;3.42;;;2.40;;
58669;SDS011;44439;47.924;10.198;2022-11-15T11:48:45;2.78;;;1.80;;
58669;SDS011;44439;47.924;10.198;2022-11-15T11:51:34;2.17;;;1.73;;
58669;SDS011;44439;47.924;10.198;2022-11-15T11:57:33;3.35;;;2.20;;
58669;SDS011;44439;47.924;10.198;2022-11-15T12:00:29;3.30;;;1.77;;
58669;SDS011;44439;47.924;10.198;2022-11-15T12:03:23;3.10;;;2.08;;
58669;SDS011;44439;47.924;10.198;2022-11-15T12:09:43;3.10;;;2.17;;
58669;SDS011;44439;47.924;10.198;2022-11-15T12:12:36;3.42;;;1.98;;
58669;SDS011;44439;47.924;10.198;2022-11-15T12:15:26;3.55;;;2.05;;
58669;SDS011;44439;47.924;10.198;2022-11-15T12:18:14;4.55;;;2.35;;
58669;SDS011;44439;47.924;10.198;2022-11-15T12:21:03;2.65;;;1.90;;
58669;SDS011;44439;47.924;10.198;2022-11-15T12:24:04;3.83;;;2.03;;
58669;SDS011;44439;47.924;10.198;2022-11-15T12:27:32;5.30;;;2.38;;
58669;SDS011;44439;47.924;10.198;2022-11-15T12:30:20;3.15;;;2.25;;
58669;SDS011;44439;47.924;10.198;2022-11-15T12:33:09;2.95;;;2.00;;
58669;SDS011;44439;47.924;10.198;2022-11-15T12:39:07;2.38;;;1.98;;
58669;SDS011;44439;47.924;10.198;2022-11-15T12:47:27;4.40;;;2.60;;
58669;SDS011;44439;47.924;10.198;2022-11-15T12:50:13;3.90;;;2.33;;
58669;SDS011;44439;47.924;10.198;2022-11-15T12:56:23;4.65;;;2.72;;
58669;SDS011;44439;47.924;10.198;2022-11-15T12:59:09;3.63;;;3.15;;
58669;SDS011;44439;47.924;10.198;2022-11-15T13:01:56;4.30;;;3.17;;
58669;SDS011;44439;47.924;10.198;2022-11-15T13:04:43;4.88;;;2.55;;
58669;SDS011;44439;47.924;10.198;2022-11-15T13:10:38;4.35;;;3.03;;
58669;SDS011;44439;47.924;10.198;2022-11-15T13:13:57;3.85;;;3.17;;
58669;SDS011;44439;47.924;10.198;2022-11-15T13:16:36;5.45;;;2.90;;
58669;SDS011;44439;47.924;10.198;2022-11-15T13:19:22;5.43;;;3.10;;
58669;SDS011;44439;47.924;10.198;2022-11-15T13:22:09;6.05;;;3.55;;
58669;SDS011;44439;47.924;10.198;2022-11-15T13:25:27;5.38;;;3.05;;
58669;SDS011;44439;47.924;10.198;2022-11-15T13:31:03;4.70;;;3.30;;
58669;SDS011;44439;47.924;10.198;2022-11-15T13:37:34;3.88;;;2.80;;
58669;SDS011;44439;47.924;10.198;2022-11-15T13:40:28;4.80;;;3.63;;
58669;SDS011;44439;47.924;10.198;2022-11-15T13:46:18;5.40;;;3.00;;
58669;SDS011;44439;47.924;10.198;2022-11-15T13:49:11;3.90;;;3.15;;
58669;SDS011;44439;47.924;10.198;2022-11-15T13:51:57;6.75;;;3.30;;
58669;SDS011;44439;47.924;10.198;2022-11-15T13:57:47;3.83;;;3.10;;
58669;SDS011;44439;47.924;10.198;2022-11-15T14:00:39;5.85;;;3.53;;
58669;SDS011;44439;47.924;10.198;2022-11-15T14:03:31;5.80;;;2.78;;
58669;SDS011;44439;47.924;10.198;2022-11-15T14:06:19;5.97;;;3.25;;
58669;SDS011;44439;47.924;10.198;2022-11-15T14:11:56;5.25;;;4.03;;
58669;SDS011;44439;47.924;10.198;2022-11-15T14:14:46;4.72;;;3.28;;
58669;SDS011;44439;47.924;10.198;2022-11-15T14:17:34;6.43;;;3.88;;
58669;SDS011;44439;47.924;10.198;2022-11-15T14:23:23;6.78;;;3.70;;
58669;SDS011;44439;47.924;10.198;2022-11-15T14:26:34;5.18;;;3.55;;
58669;SDS011;44439;47.924;10.198;2022-11-15T14:29:26;7.03;;;4.10;;
58669;SDS011;44439;47.924;10.198;2022-11-15T14:32:16;6.57;;;3.72;;
58669;SDS011;44439;47.924;10.198;2022-11-15T14:35:09;6.80;;;3.83;;
58669;SDS011;44439;47.924;10.198;2022-11-15T14:38:01;5.18;;;3.90;;
58669;SDS011;44439;47.924;10.198;2022-11-15T14:40:50;5.20;;;3.65;;
58669;SDS011;44439;47.924;10.198;2022-11-15T14:43:35;8.20;;;4.00;;
58669;SDS011;44439;47.924;10.198;2022-11-15T14:46:21;5.05;;;3.40;;
58669;SDS011;44439;47.924;10.198;2022-11-15T14:49:07;3.80;;;3.38;;
58669;SDS011;44439;47.924;10.198;2022-11-15T14:51:52;7.65;;;4.43;;
58669;SDS011;44439;47.924;10.198;2022-11-15T14:54:38;7.13;;;4.72;;
58669;SDS011;44439;47.924;10.198;2022-11-15T14:57:24;6.18;;;4.28;;
58669;SDS011;44439;47.924;10.198;2022-11-15T15:00:10;5.45;;;4.35;;
58669;SDS011;44439;47.924;10.198;2022-11-15T15:02:56;6.43;;;4.85;;
58669;SDS011;44439;47.924;10.198;2022-11-15T15:05:43;5.03;;;4.50;;
58669;SDS011;44439;47.924;10.198;2022-11-15T15:08:29;6.22;;;4.15;;
58669;SDS011;44439;47.924;10.198;2022-11-15T15:11:25;7.95;;;4.85;;
58669;SDS011;44439;47.924;10.198;2022-11-15T15:14:12;10.23;;;7.85;;
58669;SDS011;44439;47.924;10.198;2022-11-15T15:16:59;12.02;;;6.53;;
58669;SDS011;44439;47.924;10.198;2022-11-15T15:19:45;6.80;;;4.43;;
58669;SDS011;44439;47.924;10.198;2022-11-15T15:22:30;9.13;;;5.07;;
58669;SDS011;44439;47.924;10.198;2022-11-15T15:28:12;40.97;;;26.25;;
58669;SDS011;44439;47.924;10.198;2022-11-15T15:30:58;17.00;;;9.50;;
58669;SDS011;44439;47.924;10.198;2022-11-15T15:33:44;10.68;;;6.38;;
58669;SDS011;44439;47.924;10.198;2022-11-15T15:36:30;9.93;;;5.60;;
58669;SDS011;44439;47.924;10.198;2022-11-15T15:39:16;8.15;;;5.50;;
58669;SDS011;44439;47.924;10.198;2022-11-15T15:42:01;7.22;;;4.75;;
58669;SDS011;44439;47.924;10.198;2022-11-15T15:44:49;7.57;;;4.47;;
58669;SDS011;44439;47.924;10.198;2022-11-15T15:47:35;6.05;;;4.10;;
58669;SDS011;44439;47.924;10.198;2022-11-15T15:50:25;5.93;;;4.05;;
58669;SDS011;44439;47.924;10.198;2022-11-15T15:53:15;6.70;;;3.38;;
58669;SDS011;44439;47.924;10.198;2022-11-15T15:56:02;7.25;;;4.13;;
58669;SDS011;44439;47.924;10.198;2022-11-15T15:58:48;5.63;;;3.28;;
58669;SDS011;44439;47.924;10.198;2022-11-15T16:01:34;4.53;;;3.38;;
58669;SDS011;44439;47.924;10.198;2022-11-15T16:04:19;9.77;;;4.28;;
58669;SDS011;44439;47.924;10.198;2022-11-15T16:07:05;6.88;;;3.33;;
58669;SDS011;44439;47.924;10.198;2022-11-15T16:09:51;6.97;;;4.10;;
58669;SDS011;44439;47.924;10.198;2022-11-15T16:12:46;5.10;;;3.58;;
58669;SDS011;44439;47.924;10.198;2022-11-15T16:15:32;6.72;;;4.90;;
58669;SDS011;44439;47.924;10.198;2022-11-15T16:18:18;17.52;;;12.27;;
58669;SDS011;44439;47.924;10.198;2022-11-15T16:21:03;19.13;;;15.13;;
58669;SDS011;44439;47.924;10.198;2022-11-15T16:23:49;8.82;;;5.55;;
58669;SDS011;44439;47.924;10.198;2022-11-15T16:26:35;7.97;;;5.38;;
58669;SDS011;44439;47.924;10.198;2022-11-15T16:29:21;8.55;;;6.50;;
58669;SDS011;44439;47.924;10.198;2022-11-15T16:32:06;9.13;;;7.47;;
58669;SDS011;44439;47.924;10.198;2022-11-15T16:34:52;10.38;;;7.75;;
58669;SDS011;44439;47.924;10.198;2022-11-15T16:37:38;15.02;;;8.63;;
58669;SDS011;44439;47.924;10.198;2022-11-15T16:40:26;12.98;;;8.20;;
58669;SDS011;44439;47.924;10.198;2022-11-15T16:43:15;13.38;;;7.78;;
58669;SDS011;44439;47.924;10.198;2022-11-15T16:46:12;18.75;;;7.78;;
58669;SDS011;44439;47.924;10.198;2022-11-15T16:49:17;17.20;;;6.93;;
58669;SDS011;44439;47.924;10.198;2022-11-15T16:52:03;15.18;;;6.85;;
58669;SDS011;44439;47.924;10.198;2022-11-15T16:54:49;11.18;;;6.07;;
58669;SDS011;44439;47.924;10.198;2022-11-15T16:57:35;9.18;;;5.88;;
58669;SDS011;44439;47.924;10.198;2022-11-15T17:00:20;8.35;;;5.03;;
58669;SDS011;44439;47.924;10.198;2022-11-15T17:03:06;6.20;;;4.25;;
58669;SDS011;44439;47.924;10.198;2022-11-15T17:05:52;6.43;;;4.88;;
58669;SDS011;44439;47.924;10.198;2022-11-15T17:08:43;6.35;;;4.40;;
58669;SDS011;44439;47.924;10.198;2022-11-15T17:11:29;10.07;;;6.57;;
58669;SDS011;44439;47.924;10.198;2022-11-15T17:14:15;7.07;;;5.90;;
58669;SDS011;44439;47.924;10.198;2022-11-15T17:17:01;9.38;;;6.57;;
58669;SDS011;44439;47.924;10.198;2022-11-15T17:19:47;9.82;;;7.53;;
58669;SDS011;44439;47.924;10.198;2022-11-15T17:22:32;12.30;;;8.45;;
58669;SDS011;44439;47.924;10.198;2022-11-15T17:25:18;13.93;;;7.35;;
58669;SDS011;44439;47.924;10.198;2022-11-15T17:28:04;10.35;;;8.05;;
58669;SDS011;44439;47.924;10.198;2022-11-15T17:30:49;11.55;;;8.10;;
58669;SDS011;44439;47.924;10.198;2022-11-15T17:33:35;12.48;;;9.15;;
58669;SDS011;44439;47.924;10.198;2022-11-15T17:36:22;19.45;;;13.77;;
58669;SDS011;44439;47.924;10.198;2022-11-15T17:39:07;25.33;;;18.30;;
58669;SDS011;44439;47.924;10.198;2022-11-15T17:41:53;28.55;;;19.83;;
58669;SDS011;44439;47.924;10.198;2022-11-15T17:44:39;27.50;;;18.33;;
58669;SDS011;44439;47.924;10.198;2022-11-15T17:47:24;23.48;;;17.48;;
58669;SDS011;44439;47.924;10.198;2022-11-15T17:50:10;17.58;;;14.40;;
58669;SDS011;44439;47.924;10.198;2022-11-15T17:52:57;17.05;;;12.07;;
58669;SDS011;44439;47.924;10.198;2022-11-15T17:55:43;12.27;;;8.48;;
58669;SDS011;44439;47.924;10.198;2022-11-15T17:58:30;7.05;;;5.53;;
58669;SDS011;44439;47.924;10.198;2022-11-15T18:01:17;12.00;;;6.40;;
58669;SDS011;44439;47.924;10.198;2022-11-15T18:04:07;7.55;;;5.90;;
58669;SDS011;44439;47.924;10.198;2022-11-15T18:06:54;10.25;;;7.05;;
58669;SDS011;44439;47.924;10.198;2022-11-15T18:09:40;10.43;;;9.35;;
58669;SDS011;44439;47.924;10.198;2022-11-15T18:12:29;15.60;;;13.00;;
58669;SDS011;44439;47.924;10.198;2022-11-15T18:15:14;12.80;;;10.25;;
58669;SDS011;44439;47.924;10.198;2022-11-15T18:18:00;11.65;;;8.85;;